Time;durP1;ratioP1;P1;durP2;ratioP2;P2;SDS_P1;SDS_P2;PMS_P1;PMS_P2;Temp;Humidity;BMP_temperature;BMP_pressure;BME280_temperature;BME280_humidity;BME280_pressure;Samples;Min_cycle;Max_cycle;Signal;HPM_P1;HPM_P2
2022/09/13 00:01:35;;;;;;;860.58;776.47;;;19.40;99.90;;;;;;5047805;28;20195;-76
2022/09/13 00:04:03;;;;;;;855.85;771.67;;;19.40;99.90;;;;;;5047373;28;20665;-76
2022/09/13 00:06:30;;;;;;;857.78;773.88;;;19.40;99.90;;;;;;5034108;28;20211;-76
2022/09/13 00:09:00;;;;;;;860.50;776.35;;;19.40;99.90;;;;;;5046754;28;20237;-75
2022/09/13 00:11:29;;;;;;;867.65;783.25;;;19.40;99.90;;;;;;5049759;28;20217;-76
2022/09/13 00:13:56;;;;;;;870.00;785.45;;;19.40;99.90;;;;;;5046651;28;20670;-75
2022/09/13 00:16:26;;;;;;;851.70;768.03;;;19.40;99.90;;;;;;5042090;28;20203;-76
2022/09/13 00:18:53;;;;;;;853.88;769.97;;;19.40;99.90;;;;;;5050745;28;20218;-76
2022/09/13 00:21:22;;;;;;;858.40;774.35;;;19.40;99.90;;;;;;5048061;28;20202;-76
2022/09/13 00:23:52;;;;;;;854.28;770.30;;;19.40;99.90;;;;;;5043188;28;20206;-77
2022/09/13 00:26:22;;;;;;;861.70;777.55;;;19.40;99.90;;;;;;5048006;28;20615;-77
2022/09/13 00:28:50;;;;;;;860.95;776.92;;;19.40;99.90;;;;;;5051551;28;20195;-77
2022/09/13 00:31:17;;;;;;;856.30;772.40;;;19.40;99.90;;;;;;5051682;28;20218;-76
2022/09/13 00:33:44;;;;;;;851.30;767.40;;;19.30;99.90;;;;;;5054576;28;20206;-77
2022/09/13 00:36:12;;;;;;;851.95;767.83;;;19.40;99.90;;;;;;5050935;28;20202;-78
2022/09/13 00:38:39;;;;;;;853.78;769.97;;;19.40;99.90;;;;;;5050824;28;20341;-76
2022/09/13 00:41:08;;;;;;;847.00;763.35;;;19.30;99.90;;;;;;5053514;28;20202;-76
2022/09/13 00:43:45;;;;;;;859.33;775.13;;;19.30;99.90;;;;;;5053950;28;20658;-76
2022/09/13 00:46:15;;;;;;;833.97;750.63;;;19.30;99.90;;;;;;5046382;28;20217;-76
2022/09/13 00:48:44;;;;;;;850.15;766.55;;;19.30;99.90;;;;;;5045964;28;20196;-76
2022/09/13 00:51:12;;;;;;;852.28;768.33;;;19.30;99.90;;;;;;5051180;28;20221;-76
2022/09/13 00:53:43;;;;;;;854.42;770.63;;;19.30;99.90;;;;;;5049231;28;20210;-76
2022/09/13 00:56:15;;;;;;;856.53;772.60;;;19.30;99.90;;;;;;5053355;28;20199;-76
2022/09/13 00:58:48;;;;;;;848.33;764.63;;;19.30;99.90;;;;;;5053261;28;20272;-77
2022/09/13 01:01:16;;;;;;;853.03;769.22;;;19.30;99.90;;;;;;5047423;28;20202;-76
2022/09/13 01:03:47;;;;;;;839.28;755.97;;;19.30;99.90;;;;;;5036560;28;20223;-76
2022/09/13 01:06:18;;;;;;;841.38;757.88;;;19.30;99.90;;;;;;5043819;28;20589;-77
2022/09/13 01:08:48;;;;;;;853.67;769.67;;;19.30;99.90;;;;;;5045889;28;20212;-76
2022/09/13 01:11:21;;;;;;;830.72;747.53;;;19.30;99.90;;;;;;5052685;28;20211;-78
2022/09/13 01:13:50;;;;;;;853.78;769.63;;;19.30;99.90;;;;;;5053290;28;20751;-76
2022/09/13 01:16:16;;;;;;;853.67;769.83;;;19.30;99.90;;;;;;5050304;28;20297;-76
2022/09/13 01:18:43;;;;;;;858.88;774.78;;;19.30;99.90;;;;;;5048167;28;20203;-75
2022/09/13 01:21:44;;;;;;;844.13;760.55;;;19.30;99.90;;;;;;5051762;28;20589;-76
2022/09/13 01:24:36;;;;;;;839.38;756.00;;;19.20;99.90;;;;;;5053203;28;20195;-76
2022/09/13 01:27:30;;;;;;;842.67;758.97;;;19.20;99.90;;;;;;5036959;28;20198;-76
2022/09/13 01:30:05;;;;;;;834.95;751.55;;;19.20;99.90;;;;;;5047929;28;20191;-76
2022/09/13 01:32:56;;;;;;;853.20;769.17;;;19.20;99.90;;;;;;5052950;28;20280;-75
2022/09/13 01:35:38;;;;;;;840.30;756.72;;;19.20;99.90;;;;;;5029494;28;20204;-77
2022/09/13 01:38:13;;;;;;;836.95;753.47;;;19.20;99.90;;;;;;5045659;28;20195;-75
2022/09/13 01:40:55;;;;;;;843.28;759.58;;;19.20;99.90;;;;;;5047684;28;20197;-76
2022/09/13 01:43:39;;;;;;;847.05;763.25;;;19.20;99.90;;;;;;5052315;28;20211;-75
2022/09/13 01:46:12;;;;;;;830.47;747.13;;;19.20;99.90;;;;;;5048200;28;20191;-76
2022/09/13 01:48:54;;;;;;;838.63;755.05;;;19.20;99.90;;;;;;5052429;28;20226;-76
2022/09/13 01:51:28;;;;;;;847.20;763.20;;;19.20;99.90;;;;;;5047115;28;20223;-75
2022/09/13 01:54:06;;;;;;;839.38;755.72;;;19.20;99.90;;;;;;5050498;28;20195;-76
2022/09/13 01:56:39;;;;;;;831.85;748.53;;;19.20;99.90;;;;;;5050023;28;20199;-75
2022/09/13 01:59:14;;;;;;;855.75;771.85;;;19.20;99.90;;;;;;5050394;28;20285;-76
2022/09/13 02:01:49;;;;;;;844.90;761.20;;;19.20;99.90;;;;;;5045208;28;20245;-76
2022/09/13 02:04:20;;;;;;;830.97;747.65;;;19.10;99.90;;;;;;5052214;28;20245;-75
2022/09/13 02:06:51;;;;;;;844.42;760.85;;;19.10;99.90;;;;;;5043846;28;20199;-77
2022/09/13 02:09:21;;;;;;;844.22;760.63;;;19.10;99.90;;;;;;5046243;28;20195;-76
2022/09/13 02:11:53;;;;;;;849.80;766.00;;;19.20;99.90;;;;;;5051249;28;20229;-76
2022/09/13 02:14:24;;;;;;;845.85;762.05;;;19.10;99.90;;;;;;5052526;28;20554;-76
2022/09/13 02:16:59;;;;;;;838.67;755.22;;;19.10;99.90;;;;;;5050627;28;20716;-76
2022/09/13 02:19:36;;;;;;;843.40;759.75;;;19.10;99.90;;;;;;5050332;28;20205;-76
2022/09/13 02:22:05;;;;;;;836.03;752.60;;;19.10;99.90;;;;;;5046526;28;20198;-76
2022/09/13 02:24:34;;;;;;;835.58;752.22;;;19.10;99.90;;;;;;5051617;28;20203;-76
2022/09/13 02:27:05;;;;;;;849.88;766.03;;;19.10;99.90;;;;;;5051487;28;20195;-78
2022/09/13 02:29:36;;;;;;;851.30;767.40;;;19.10;99.90;;;;;;5042248;28;20234;-76
2022/09/13 02:32:08;;;;;;;853.45;769.53;;;19.10;99.90;;;;;;5047452;28;20230;-76
2022/09/13 02:34:40;;;;;;;838.08;754.47;;;19.10;99.90;;;;;;5052409;28;20194;-78
2022/09/13 02:37:09;;;;;;;836.08;752.65;;;19.10;99.90;;;;;;5040313;28;20727;-77
2022/09/13 02:39:40;;;;;;;839.65;756.15;;;19.10;99.90;;;;;;5054421;28;20195;-77
2022/09/13 02:42:15;;;;;;;833.53;750.08;;;19.10;99.90;;;;;;5051656;28;20624;-76
2022/09/13 02:44:45;;;;;;;830.08;746.80;;;19.10;99.90;;;;;;5051628;28;20562;-76
2022/09/13 02:47:24;;;;;;;839.85;756.35;;;19.10;99.90;;;;;;5049933;28;20195;-76
2022/09/13 02:49:58;;;;;;;838.40;755.00;;;19.10;99.90;;;;;;5052659;28;20284;-76
2022/09/13 02:52:35;;;;;;;834.67;751.47;;;19.10;99.90;;;;;;5042529;28;20227;-76
2022/09/13 02:55:13;;;;;;;836.22;752.72;;;19.10;99.90;;;;;;5050023;28;20198;-76
2022/09/13 02:57:48;;;;;;;832.75;749.55;;;19.10;99.90;;;;;;5042487;28;20634;-77
2022/09/13 03:00:15;;;;;;;828.35;745.25;;;19.10;99.90;;;;;;5060504;28;20205;-78
2022/09/13 03:02:45;;;;;;;838.42;754.88;;;19.00;99.90;;;;;;5046139;28;20704;-76
2022/09/13 03:05:12;;;;;;;841.35;757.50;;;19.00;99.90;;;;;;5036256;28;20282;-76
2022/09/13 03:07:38;;;;;;;840.97;757.47;;;19.10;99.90;;;;;;5050142;28;20210;-76
2022/09/13 03:10:08;;;;;;;843.20;759.70;;;19.10;99.90;;;;;;5044281;28;20252;-76
2022/09/13 03:13:02;;;;;;;829.60;746.22;;;19.00;99.90;;;;;;5050703;28;20272;-76
2022/09/13 03:15:39;;;;;;;831.67;748.38;;;19.00;99.90;;;;;;5047160;28;20207;-75
2022/09/13 03:18:19;;;;;;;823.65;740.60;;;19.00;99.90;;;;;;5035671;28;20191;-75
2022/09/13 03:20:57;;;;;;;842.30;758.70;;;19.00;99.90;;;;;;5042376;28;20203;-77
2022/09/13 03:23:38;;;;;;;816.92;734.05;;;19.00;99.90;;;;;;5033845;28;20226;-75
2022/09/13 03:26:19;;;;;;;825.28;742.20;;;19.00;99.90;;;;;;5048548;28;20194;-75
2022/09/13 03:28:57;;;;;;;833.67;750.40;;;19.00;99.90;;;;;;5051310;28;20203;-75
2022/09/13 03:31:32;;;;;;;820.28;737.30;;;19.00;99.90;;;;;;5046881;28;20199;-75
2022/09/13 03:34:09;;;;;;;839.38;755.97;;;19.00;99.90;;;;;;5050565;28;20202;-75
2022/09/13 03:36:41;;;;;;;841.97;758.42;;;19.00;99.90;;;;;;5041271;28;20199;-75
2022/09/13 03:39:13;;;;;;;821.00;738.00;;;19.00;99.90;;;;;;5043891;28;20195;-75
2022/09/13 03:41:45;;;;;;;831.58;748.40;;;18.90;99.90;;;;;;5047726;28;20210;-75
2022/09/13 03:44:15;;;;;;;839.20;755.70;;;19.00;99.90;;;;;;5050151;28;20651;-77
2022/09/13 03:46:45;;;;;;;817.45;734.78;;;18.90;99.90;;;;;;5046576;28;20601;-74
2022/09/13 03:49:15;;;;;;;822.65;739.55;;;18.90;99.90;;;;;;5051312;28;20658;-75
2022/09/13 03:51:44;;;;;;;845.47;761.70;;;18.90;99.90;;;;;;5043947;28;20223;-75
2022/09/13 03:54:15;;;;;;;832.15;749.00;;;19.00;99.90;;;;;;5041724;28;20195;-75
2022/09/13 03:56:41;;;;;;;832.40;749.03;;;18.90;99.90;;;;;;5045903;28;20203;-76
2022/09/13 03:59:08;;;;;;;825.70;742.60;;;18.90;99.90;;;;;;5043529;28;20210;-76
2022/09/13 04:01:35;;;;;;;827.75;744.67;;;18.90;99.90;;;;;;5051397;28;20187;-79
2022/09/13 04:04:02;;;;;;;816.90;734.08;;;18.90;99.90;;;;;;5054307;28;20261;-75
2022/09/13 04:06:30;;;;;;;840.33;756.78;;;18.90;99.90;;;;;;5049736;28;20195;-76
2022/09/13 04:08:58;;;;;;;834.88;751.55;;;18.90;99.90;;;;;;5053004;28;20203;-76
2022/09/13 04:11:25;;;;;;;828.80;745.70;;;18.90;99.90;;;;;;5053488;28;20195;-76
2022/09/13 04:13:52;;;;;;;843.10;759.35;;;18.90;99.90;;;;;;5044454;28;20251;-75
2022/09/13 04:16:19;;;;;;;840.17;756.70;;;18.90;99.90;;;;;;5048314;28;20272;-76
2022/09/13 04:18:45;;;;;;;829.13;745.92;;;18.90;99.90;;;;;;5045553;28;20200;-76
2022/09/13 04:21:12;;;;;;;825.42;742.42;;;18.90;99.90;;;;;;5047727;28;20245;-76
2022/09/13 04:23:40;;;;;;;825.70;742.63;;;18.90;99.90;;;;;;5045468;28;20693;-76
2022/09/13 04:26:07;;;;;;;823.58;740.67;;;18.90;99.90;;;;;;5048818;28;20203;-76
2022/09/13 04:28:33;;;;;;;843.60;760.00;;;18.90;99.90;;;;;;5046542;28;20210;-76
2022/09/13 04:31:00;;;;;;;830.05;746.67;;;18.90;99.90;;;;;;5052601;28;20199;-77
2022/09/13 04:33:27;;;;;;;806.42;723.72;;;18.90;99.90;;;;;;5042673;28;20224;-77
2022/09/13 04:35:59;;;;;;;825.95;742.92;;;18.90;99.90;;;;;;5047193;28;20229;-76
2022/09/13 04:38:26;;;;;;;826.53;743.25;;;18.90;99.90;;;;;;5035003;28;20606;-75
2022/09/13 04:40:54;;;;;;;831.47;748.30;;;18.90;99.90;;;;;;5052342;28;20541;-75
2022/09/13 04:43:21;;;;;;;829.25;746.00;;;18.90;99.90;;;;;;5054434;28;20202;-77
2022/09/13 04:45:48;;;;;;;829.58;746.40;;;18.90;99.90;;;;;;5052251;28;20202;-75
2022/09/13 04:48:15;;;;;;;844.63;760.92;;;18.90;99.90;;;;;;5052285;28;20666;-77
2022/09/13 04:50:42;;;;;;;846.05;762.03;;;18.80;99.90;;;;;;5045514;28;20608;-75
2022/09/13 04:53:09;;;;;;;837.88;754.47;;;18.80;99.90;;;;;;5052634;28;20211;-75
2022/09/13 04:55:36;;;;;;;829.92;746.65;;;18.80;99.90;;;;;;5051589;28;20573;-76
2022/09/13 04:58:04;;;;;;;832.92;749.58;;;18.90;99.90;;;;;;5047907;28;20614;-75
2022/09/13 05:00:31;;;;;;;823.88;740.78;;;18.90;99.90;;;;;;5042708;28;20210;-76
2022/09/13 05:02:58;;;;;;;823.28;740.08;;;18.80;99.90;;;;;;5055819;28;20242;-75
2022/09/13 05:05:27;;;;;;;824.92;741.65;;;18.80;99.90;;;;;;5052580;28;20697;-75
2022/09/13 05:07:54;;;;;;;825.97;742.97;;;18.80;99.90;;;;;;5049235;28;20203;-76
2022/09/13 05:10:21;;;;;;;844.35;760.42;;;18.80;99.90;;;;;;5039541;28;20195;-76
2022/09/13 05:12:47;;;;;;;828.63;745.38;;;18.80;99.90;;;;;;5051007;28;20218;-76
2022/09/13 05:15:16;;;;;;;827.58;744.13;;;18.80;99.90;;;;;;5052139;28;20222;-75
2022/09/13 05:17:42;;;;;;;834.65;751.30;;;18.80;99.90;;;;;;5049999;28;20264;-76
2022/09/13 05:20:10;;;;;;;810.25;727.60;;;18.80;99.90;;;;;;5046164;28;20958;-76
2022/09/13 05:22:37;;;;;;;833.70;750.13;;;18.80;99.90;;;;;;5049249;28;20199;-77
2022/09/13 05:25:04;;;;;;;823.97;740.80;;;18.80;99.90;;;;;;5053701;28;20221;-77
2022/09/13 05:27:31;;;;;;;825.67;742.67;;;18.80;99.90;;;;;;5050630;28;20213;-77
2022/09/13 05:29:58;;;;;;;825.75;742.58;;;18.80;99.90;;;;;;5042562;28;20203;-76
2022/09/13 05:32:26;;;;;;;823.13;740.05;;;18.80;99.90;;;;;;5050823;28;20965;-76
2022/09/13 05:34:53;;;;;;;834.53;751.13;;;18.80;99.90;;;;;;5047570;28;20256;-76
2022/09/13 05:37:19;;;;;;;832.50;749.33;;;18.80;99.90;;;;;;5046001;28;20199;-76
2022/09/13 05:39:46;;;;;;;819.47;736.45;;;18.80;99.90;;;;;;5051331;28;20198;-78
2022/09/13 05:42:13;;;;;;;824.88;741.78;;;18.80;99.90;;;;;;5052061;28;20203;-76
2022/09/13 05:44:40;;;;;;;827.78;744.47;;;18.80;99.90;;;;;;5045035;28;20215;-76
2022/09/13 05:47:07;;;;;;;833.05;749.85;;;18.80;99.90;;;;;;5048733;28;20199;-78
2022/09/13 05:49:35;;;;;;;830.58;747.33;;;18.80;99.90;;;;;;5052185;28;20281;-76
2022/09/13 05:52:02;;;;;;;824.22;741.15;;;18.80;99.90;;;;;;5049355;28;20650;-76
2022/09/13 05:54:29;;;;;;;822.58;739.88;;;18.80;99.90;;;;;;5046735;28;20195;-76
2022/09/13 05:56:56;;;;;;;822.10;739.10;;;18.80;99.90;;;;;;5051417;28;20195;-76
2022/09/13 05:59:23;;;;;;;824.85;741.58;;;18.80;99.90;;;;;;5047103;28;20214;-79
2022/09/13 06:01:50;;;;;;;813.95;731.08;;;18.80;99.90;;;;;;5045567;28;20203;-76
2022/09/13 06:04:16;;;;;;;811.58;728.53;;;18.80;99.90;;;;;;5051177;28;20215;-77
2022/09/13 06:06:44;;;;;;;826.67;743.63;;;18.80;99.90;;;;;;5050246;28;20685;-77
2022/09/13 06:09:12;;;;;;;820.42;737.50;;;18.80;99.90;;;;;;5051964;28;20206;-76
2022/09/13 06:11:38;;;;;;;824.28;740.97;;;18.80;99.90;;;;;;5048917;28;20678;-77
2022/09/13 06:14:05;;;;;;;820.80;737.72;;;18.80;99.90;;;;;;5042395;28;20231;-77
2022/09/13 06:16:32;;;;;;;832.72;749.45;;;18.80;99.90;;;;;;5044340;28;20208;-76
2022/09/13 06:18:59;;;;;;;832.28;749.10;;;18.80;99.90;;;;;;5044284;28;20976;-77
2022/09/13 06:21:25;;;;;;;826.58;743.40;;;18.80;99.90;;;;;;5043694;28;20253;-77
2022/09/13 06:23:54;;;;;;;826.00;742.97;;;18.80;99.90;;;;;;5046577;28;20199;-76
2022/09/13 06:26:22;;;;;;;818.65;735.67;;;18.80;99.90;;;;;;5048872;28;20202;-77
2022/09/13 06:28:50;;;;;;;814.53;731.60;;;18.80;99.90;;;;;;5047925;28;20201;-77
2022/09/13 06:31:19;;;;;;;816.72;733.83;;;18.80;99.90;;;;;;5054644;28;20205;-77
2022/09/13 06:33:46;;;;;;;822.40;739.25;;;18.70;99.90;;;;;;5040507;28;20705;-75
2022/09/13 06:36:16;;;;;;;806.70;724.10;;;18.70;99.90;;;;;;5046135;28;20207;-76
2022/09/13 06:38:43;;;;;;;807.90;725.35;;;18.80;99.90;;;;;;5051523;28;20551;-77
2022/09/13 06:41:13;;;;;;;834.13;750.72;;;18.80;99.90;;;;;;5042924;28;20203;-75
2022/09/13 06:43:41;;;;;;;818.53;735.75;;;18.80;99.90;;;;;;5046427;28;20286;-76
2022/09/13 06:46:09;;;;;;;827.28;744.08;;;18.80;99.90;;;;;;5045623;28;20206;-76
2022/09/13 06:48:38;;;;;;;809.42;726.85;;;18.80;99.90;;;;;;5053540;28;20206;-76
2022/09/13 06:51:07;;;;;;;825.47;742.25;;;18.80;99.90;;;;;;5034986;28;20783;-78
2022/09/13 06:53:36;;;;;;;829.38;746.28;;;18.80;99.90;;;;;;5047144;28;20218;-75
2022/09/13 06:56:04;;;;;;;813.05;730.53;;;18.80;99.90;;;;;;5048631;28;20198;-76
2022/09/13 06:58:34;;;;;;;815.92;733.03;;;18.80;99.90;;;;;;5051478;28;20195;-77
2022/09/13 07:01:13;;;;;;;834.88;751.67;;;18.90;99.90;;;;;;5053250;28;20203;-75
2022/09/13 07:03:41;;;;;;;833.05;749.70;;;18.90;99.90;;;;;;5043630;28;20215;-77
2022/09/13 07:06:12;;;;;;;816.35;733.55;;;19.00;99.90;;;;;;5044275;28;20204;-77
2022/09/13 07:08:40;;;;;;;826.88;743.78;;;19.00;99.90;;;;;;5048333;28;20198;-77
2022/09/13 07:11:08;;;;;;;840.90;757.63;;;19.00;99.90;;;;;;5050706;28;20199;-78
2022/09/13 07:13:36;;;;;;;825.30;742.53;;;19.00;99.90;;;;;;5048911;28;20233;-78
2022/09/13 07:16:05;;;;;;;821.85;738.97;;;19.00;99.90;;;;;;5040302;28;20191;-77
2022/09/13 07:18:31;;;;;;;834.10;750.90;;;19.00;99.90;;;;;;5045373;28;20245;-77
2022/09/13 07:21:00;;;;;;;845.42;762.05;;;19.10;99.90;;;;;;5049488;28;20198;-78
2022/09/13 07:23:27;;;;;;;849.58;766.13;;;19.10;99.90;;;;;;5050412;28;20286;-78
2022/09/13 07:26:00;;;;;;;824.25;741.42;;;19.10;99.90;;;;;;5050079;28;20226;-77
2022/09/13 07:28:28;;;;;;;824.95;741.92;;;19.10;99.90;;;;;;5048442;28;20198;-78
2022/09/13 07:30:58;;;;;;;850.53;766.78;;;19.10;99.90;;;;;;5047846;28;20196;-77
2022/09/13 07:33:24;;;;;;;847.90;764.42;;;19.10;99.90;;;;;;5042192;28;20714;-78
2022/09/13 07:35:56;;;;;;;850.17;766.40;;;19.20;99.90;;;;;;5049449;28;20202;-77
2022/09/13 07:38:22;;;;;;;851.25;767.55;;;19.30;99.90;;;;;;5047080;28;20278;-78
2022/09/13 07:40:54;;;;;;;844.72;761.10;;;19.40;99.90;;;;;;5044734;28;20639;-79
2022/09/13 07:43:21;;;;;;;861.28;777.30;;;19.50;99.90;;;;;;5050114;28;20202;-78
2022/09/13 07:45:48;;;;;;;875.60;791.20;;;19.70;99.90;;;;;;5050174;28;20257;-78
2022/09/13 07:48:16;;;;;;;876.30;791.70;;;19.80;99.90;;;;;;5048096;28;20199;-78
2022/09/13 07:50:43;;;;;;;875.80;791.53;;;19.90;99.90;;;;;;5046965;28;20191;-77
2022/09/13 07:53:09;;;;;;;892.33;807.47;;;19.90;99.90;;;;;;5044695;28;20226;-77
2022/09/13 07:55:36;;;;;;;891.50;806.65;;;19.90;99.90;;;;;;5044268;28;20205;-77
2022/09/13 07:58:03;;;;;;;869.58;785.67;;;19.90;99.90;;;;;;5045363;28;20203;-78
2022/09/13 08:00:29;;;;;;;874.03;789.78;;;19.90;99.90;;;;;;5045730;28;20215;-77
2022/09/13 08:02:56;;;;;;;866.15;782.17;;;19.90;99.90;;;;;;5044528;28;20219;-78
2022/09/13 08:05:24;;;;;;;882.25;797.80;;;19.90;99.90;;;;;;5049436;28;20864;-77
2022/09/13 08:07:51;;;;;;;875.92;791.63;;;19.90;99.90;;;;;;5044050;28;20203;-78
2022/09/13 08:10:18;;;;;;;878.30;794.03;;;19.80;99.90;;;;;;5045547;28;20207;-78
2022/09/13 08:12:44;;;;;;;871.72;787.58;;;19.80;99.90;;;;;;5046053;28;20195;-79
2022/09/13 08:15:11;;;;;;;876.60;792.50;;;19.80;99.90;;;;;;5044798;28;20195;-79
2022/09/13 08:17:38;;;;;;;879.88;795.35;;;19.90;99.90;;;;;;5045814;28;20724;-77
2022/09/13 08:20:05;;;;;;;902.25;816.95;;;20.00;99.90;;;;;;5051614;28;20584;-78
2022/09/13 08:22:33;;;;;;;905.90;820.40;;;20.20;99.90;;;;;;5043755;28;20209;-77
2022/09/13 08:25:01;;;;;;;905.20;819.97;;;20.50;99.90;;;;;;5048335;28;20603;-79
2022/09/13 08:27:29;;;;;;;912.95;827.63;;;20.70;99.90;;;;;;5051640;28;20202;-77
2022/09/13 08:29:55;;;;;;;933.78;847.75;;;20.80;99.90;;;;;;5043869;28;20662;-78
2022/09/13 08:32:22;;;;;;;935.05;848.95;;;21.00;99.90;;;;;;5046034;28;20654;-77
2022/09/13 08:34:49;;;;;;;945.78;859.53;;;21.10;99.90;;;;;;5045846;28;20257;-78
2022/09/13 08:37:17;;;;;;;944.55;858.10;;;21.20;99.90;;;;;;5045855;28;20589;-77
2022/09/13 08:39:45;;;;;;;948.50;861.75;;;21.30;99.90;;;;;;5041737;28;20192;-78
2022/09/13 08:42:24;;;;;;;961.83;875.13;;;21.40;99.90;;;;;;5044230;28;21851;-79
2022/09/13 08:44:54;;;;;;;948.72;862.20;;;21.40;99.90;;;;;;5049691;28;20281;-77
2022/09/13 08:47:37;;;;;;;958.45;871.60;;;21.40;99.90;;;;;;5053639;28;20701;-77
2022/09/13 08:50:12;;;;;;;962.72;875.92;;;21.40;99.90;;;;;;5052869;28;20201;-78
2022/09/13 08:52:51;;;;;;;962.55;875.42;;;21.40;99.90;;;;;;5055278;28;20686;-77
2022/09/13 08:55:40;;;;;;;969.22;882.03;;;21.40;99.90;;;;;;5048129;28;20214;-77
2022/09/13 08:58:19;;;;;;;974.50;886.92;;;21.40;99.90;;;;;;5051063;28;20199;-76
2022/09/13 09:00:51;;;;;;;975.58;888.25;;;21.50;99.90;;;;;;5047764;28;20225;-80
2022/09/13 09:03:28;;;;;;;969.25;881.92;;;21.50;99.90;;;;;;5052215;28;20206;-77
2022/09/13 09:05:55;;;;;;;972.88;885.33;;;21.60;99.90;;;;;;5054619;28;20839;-76
2022/09/13 09:08:31;;;;;;;970.10;882.67;;;21.60;99.90;;;;;;5051933;28;20194;-77
2022/09/13 09:11:07;;;;;;;970.45;882.85;;;21.70;99.90;;;;;;5054754;28;20695;-78
2022/09/13 09:13:39;;;;;;;983.85;896.25;;;21.70;99.90;;;;;;5052737;28;20264;-79
2022/09/13 09:16:11;;;;;;;979.92;892.40;;;21.70;99.90;;;;;;5045192;28;20199;-79
2022/09/13 09:18:42;;;;;;;986.90;899.30;;;21.70;99.90;;;;;;5053384;28;20199;-78
2022/09/13 09:21:14;;;;;;;984.28;896.33;;;21.70;99.90;;;;;;5037452;28;20192;-77
2022/09/13 09:23:48;;;;;;;977.85;890.05;;;21.70;99.90;;;;;;5051041;28;20566;-77
2022/09/13 09:26:19;;;;;;;974.88;887.47;;;21.70;99.90;;;;;;5063253;28;20191;-77
2022/09/13 09:28:49;;;;;;;974.53;887.33;;;21.70;99.90;;;;;;5044646;28;20659;-78
2022/09/13 09:31:27;;;;;;;986.03;898.17;;;21.70;99.90;;;;;;5044250;28;20194;-78
2022/09/13 09:34:08;;;;;;;969.90;882.85;;;21.70;99.90;;;;;;5048201;28;20206;-78
2022/09/13 09:36:39;;;;;;;972.15;885.17;;;21.70;99.90;;;;;;5043847;28;20198;-78
2022/09/13 09:39:09;;;;;;;983.60;896.00;;;21.70;99.90;;;;;;5045208;28;20194;-79
2022/09/13 09:41:38;;;;;;;977.55;890.00;;;21.70;99.90;;;;;;5047100;28;20204;-78
2022/09/13 09:44:16;;;;;;;972.30;884.78;;;21.70;99.90;;;;;;5041412;28;20231;-79
2022/09/13 09:46:47;;;;;;;983.80;896.13;;;21.70;99.90;;;;;;5050052;28;20194;-78
2022/09/13 09:52:06;;;;;;;963.45;876.47;;;21.70;99.90;;;;;;5041584;28;20202;-81
2022/09/13 09:54:34;;;;;;;983.40;895.90;;;21.70;99.90;;;;;;5048389;28;20229;-79
2022/09/13 09:57:02;;;;;;;978.45;890.88;;;21.70;99.90;;;;;;5055428;28;20599;-79
2022/09/13 09:59:31;;;;;;;975.58;888.05;;;21.70;99.90;;;;;;5046070;28;20208;-79
2022/09/13 10:01:59;;;;;;;970.47;883.25;;;21.70;99.90;;;;;;5047379;28;20203;-79
2022/09/13 10:04:26;;;;;;;977.55;890.15;;;21.70;99.90;;;;;;5049991;28;20226;-78
2022/09/13 10:07:11;;;;;;;989.05;901.28;;;21.70;99.90;;;;;;5048492;28;20562;-79
2022/09/13 10:09:38;;;;;;;979.38;891.95;;;21.80;99.90;;;;;;5048567;28;20195;-79
2022/09/13 10:12:07;;;;;;;984.25;896.97;;;21.80;99.90;;;;;;5051265;28;20717;-78
2022/09/13 10:14:39;;;;;;;969.03;882.00;;;21.80;99.90;;;;;;5053221;28;20284;-78
2022/09/13 10:17:18;;;;;;;966.10;879.17;;;21.80;99.90;;;;;;5045413;28;20249;-79
2022/09/13 10:19:53;;;;;;;989.05;901.08;;;21.80;99.90;;;;;;5047203;28;20195;-80
2022/09/13 10:22:20;;;;;;;960.83;874.25;;;21.80;99.90;;;;;;5046586;28;20194;-78
2022/09/13 10:24:47;;;;;;;983.38;895.90;;;21.80;99.90;;;;;;5045749;28;20195;-78
2022/09/13 10:27:24;;;;;;;979.70;892.60;;;21.80;99.90;;;;;;5050330;28;20202;-78
2022/09/13 10:29:58;;;;;;;972.67;885.63;;;21.80;99.90;;;;;;5043394;28;20202;-78
2022/09/13 10:32:26;;;;;;;968.60;881.60;;;21.80;99.90;;;;;;5047566;28;20242;-78
2022/09/13 10:34:56;;;;;;;980.75;893.63;;;21.70;99.90;;;;;;5048530;28;20710;-79
2022/09/13 10:37:29;;;;;;;980.22;892.88;;;21.70;99.90;;;;;;5042704;28;20195;-79
2022/09/13 10:40:01;;;;;;;964.22;877.40;;;21.70;99.90;;;;;;5036360;28;20207;-78
2022/09/13 10:42:31;;;;;;;982.17;894.78;;;21.70;99.90;;;;;;5038581;28;20200;-78
2022/09/13 10:45:01;;;;;;;965.80;879.00;;;21.70;99.90;;;;;;5041671;28;20553;-77
2022/09/13 10:47:33;;;;;;;973.65;886.42;;;21.70;99.90;;;;;;5042476;28;20741;-78
2022/09/13 10:50:13;;;;;;;978.92;891.55;;;21.70;99.90;;;;;;5042871;28;20617;-79
2022/09/13 10:52:44;;;;;;;989.25;901.72;;;21.70;99.90;;;;;;5044933;28;20199;-79
2022/09/13 10:55:30;;;;;;;970.80;883.85;;;21.80;99.90;;;;;;5044868;28;20218;-79
2022/09/13 10:58:21;;;;;;;985.38;897.72;;;21.80;99.90;;;;;;5044924;28;20218;-78
2022/09/13 11:01:30;;;;;;;973.25;886.42;;;21.80;99.90;;;;;;5047103;28;20206;-78
2022/09/13 11:04:30;;;;;;;977.53;890.33;;;21.80;99.90;;;;;;5047730;28;20219;-78
2022/09/13 11:07:16;;;;;;;957.03;870.35;;;21.80;99.90;;;;;;5029120;28;20694;-78
2022/09/13 11:09:51;;;;;;;981.35;893.80;;;21.80;99.90;;;;;;5040010;28;20218;-79
2022/09/13 11:12:23;;;;;;;977.75;890.80;;;21.80;99.90;;;;;;5049498;28;20229;-76
2022/09/13 11:15:03;;;;;;;981.42;894.13;;;21.90;99.90;;;;;;5047459;28;20207;-76
2022/09/13 11:17:47;;;;;;;966.63;879.80;;;21.90;99.90;;;;;;5048714;28;20186;-77
2022/09/13 11:20:26;;;;;;;972.00;885.10;;;21.90;99.90;;;;;;5043509;28;20195;-77
2022/09/13 11:23:21;;;;;;;965.22;878.40;;;21.90;99.90;;;;;;5045556;28;20202;-77
2022/09/13 11:26:03;;;;;;;966.25;879.42;;;21.90;99.90;;;;;;5050288;28;20199;-78
2022/09/13 11:28:40;;;;;;;972.90;885.97;;;21.90;99.90;;;;;;5049123;28;20210;-79
2022/09/13 11:31:25;;;;;;;983.95;896.33;;;22.00;99.90;;;;;;5035618;28;20199;-79
2022/09/13 11:34:04;;;;;;;962.33;875.47;;;22.00;99.90;;;;;;5041126;28;20654;-78
2022/09/13 11:37:09;;;;;;;987.97;900.67;;;22.00;99.90;;;;;;5048433;28;20187;-77
2022/09/13 11:39:39;;;;;;;985.63;898.15;;;22.00;99.90;;;;;;5048359;28;20214;-77
2022/09/13 11:42:21;;;;;;;984.25;896.78;;;22.00;99.90;;;;;;5049641;28;20281;-77
2022/09/13 11:45:14;;;;;;;975.00;888.00;;;22.00;99.90;;;;;;5040328;28;20210;-78
2022/09/13 11:47:50;;;;;;;978.15;891.22;;;22.00;99.90;;;;;;5042854;28;20222;-79
2022/09/13 11:50:34;;;;;;;984.90;897.55;;;22.10;99.90;;;;;;5036077;28;20201;-76
2022/09/13 11:53:18;;;;;;;983.90;896.50;;;22.00;99.90;;;;;;5045786;28;20198;-77
2022/09/13 11:55:49;;;;;;;979.90;892.65;;;22.00;99.90;;;;;;5042698;28;20276;-76
2022/09/13 11:58:23;;;;;;;971.08;884.00;;;22.00;99.90;;;;;;5047707;28;20209;-76
2022/09/13 12:00:55;;;;;;;980.40;892.85;;;22.10;99.90;;;;;;5045551;28;20195;-78
2022/09/13 12:03:28;;;;;;;980.22;893.03;;;22.10;99.90;;;;;;5042605;28;20272;-78
2022/09/13 12:05:59;;;;;;;993.33;905.65;;;22.10;99.90;;;;;;5052668;28;20668;-76
2022/09/13 12:08:29;;;;;;;979.80;892.40;;;22.10;99.90;;;;;;5049354;28;20199;-76
2022/09/13 12:10:58;;;;;;;973.50;886.28;;;22.10;99.90;;;;;;5047057;28;20199;-76
2022/09/13 12:13:27;;;;;;;994.22;906.72;;;22.10;99.90;;;;;;5044226;28;20198;-76
2022/09/13 12:15:57;;;;;;;991.15;903.47;;;22.10;99.90;;;;;;5045653;28;20740;-76
2022/09/13 12:18:29;;;;;;;992.97;905.30;;;22.10;99.90;;;;;;5045200;28;20238;-76
2022/09/13 12:20:59;;;;;;;984.10;896.80;;;22.10;99.90;;;;;;5045358;28;20199;-76
2022/09/13 12:23:31;;;;;;;981.30;893.55;;;22.10;99.90;;;;;;5046778;28;20664;-77
2022/09/13 12:26:01;;;;;;;987.05;899.53;;;22.20;99.90;;;;;;5051788;28;20210;-76
2022/09/13 12:28:34;;;;;;;1002.40;914.50;;;22.20;99.90;;;;;;5052389;28;20264;-77
2022/09/13 12:31:06;;;;;;;985.67;898.13;;;22.20;99.90;;;;;;5044130;28;20199;-76
2022/09/13 12:33:39;;;;;;;988.58;900.85;;;22.20;99.90;;;;;;5040332;28;20203;-76